sensor_id;sensor_type;location;lat;lon;timestamp;temperature;humidity
29817;DHT22;16805;52.956;5.906;2023-08-24T00:02:13;18.90;99.90
29817;DHT22;16805;52.956;5.906;2023-08-24T00:04:39;18.90;99.90
29817;DHT22;16805;52.956;5.906;2023-08-24T00:07:05;18.80;99.90
29817;DHT22;16805;52.956;5.906;2023-08-24T00:09:31;18.80;99.90
29817;DHT22;16805;52.956;5.906;2023-08-24T00:11:57;18.80;99.90
29817;DHT22;16805;52.956;5.906;2023-08-24T00:14:23;18.80;99.90
29817;DHT22;16805;52.956;5.906;2023-08-24T00:16:49;18.70;99.90
29817;DHT22;16805;52.956;5.906;2023-08-24T00:19:18;18.70;99.90
29817;DHT22;16805;52.956;5.906;2023-08-24T00:21:44;18.70;99.90
29817;DHT22;16805;52.956;5.906;2023-08-24T00:24:10;18.60;99.90
29817;DHT22;16805;52.956;5.906;2023-08-24T00:26:36;18.60;99.90
29817;DHT22;16805;52.956;5.906;2023-08-24T00:29:02;18.60;99.90
29817;DHT22;16805;52.956;5.906;2023-08-24T00:31:28;18.60;99.90
29817;DHT22;16805;52.956;5.906;2023-08-24T00:33:54;18.50;99.90
29817;DHT22;16805;52.956;5.906;2023-08-24T00:36:20;18.50;99.90
29817;DHT22;16805;52.956;5.906;2023-08-24T00:38:48;18.50;99.90
29817;DHT22;16805;52.956;5.906;2023-08-24T00:41:17;18.50;99.90
29817;DHT22;16805;52.956;5.906;2023-08-24T00:43:43;18.40;99.90
29817;DHT22;16805;52.956;5.906;2023-08-24T00:46:09;18.40;99.90
29817;DHT22;16805;52.956;5.906;2023-08-24T00:48:35;18.40;99.90
29817;DHT22;16805;52.956;5.906;2023-08-24T00:51:01;18.40;99.90
29817;DHT22;16805;52.956;5.906;2023-08-24T00:53:29;18.40;99.90
29817;DHT22;16805;52.956;5.906;2023-08-24T00:55:55;18.40;99.90
29817;DHT22;16805;52.956;5.906;2023-08-24T00:58:23;18.40;99.90
29817;DHT22;16805;52.956;5.906;2023-08-24T01:00:51;18.40;99.90
29817;DHT22;16805;52.956;5.906;2023-08-24T01:03:17;18.30;99.90
29817;DHT22;16805;52.956;5.906;2023-08-24T01:05:45;18.30;99.90
29817;DHT22;16805;52.956;5.906;2023-08-24T01:08:11;18.20;99.90
29817;DHT22;16805;52.956;5.906;2023-08-24T01:10:51;18.10;99.90
29817;DHT22;16805;52.956;5.906;2023-08-24T01:13:32;18.00;99.90
29817;DHT22;16805;52.956;5.906;2023-08-24T01:16:11;17.90;99.90
29817;DHT22;16805;52.956;5.906;2023-08-24T01:18:38;17.90;99.90
29817;DHT22;16805;52.956;5.906;2023-08-24T01:21:05;17.80;99.90
29817;DHT22;16805;52.956;5.906;2023-08-24T01:28:33;17.70;99.90
29817;DHT22;16805;52.956;5.906;2023-08-24T01:30:59;17.70;99.90
29817;DHT22;16805;52.956;5.906;2023-08-24T01:33:25;17.70;99.90
29817;DHT22;16805;52.956;5.906;2023-08-24T01:35:51;17.70;99.90
29817;DHT22;16805;52.956;5.906;2023-08-24T01:38:17;17.70;99.90
29817;DHT22;16805;52.956;5.906;2023-08-24T01:41:05;17.70;99.90
29817;DHT22;16805;52.956;5.906;2023-08-24T01:43:35;17.60;99.90
29817;DHT22;16805;52.956;5.906;2023-08-24T01:46:06;17.50;99.90
29817;DHT22;16805;52.956;5.906;2023-08-24T01:48:33;17.50;99.90
29817;DHT22;16805;52.956;5.906;2023-08-24T01:50:59;17.50;99.90
29817;DHT22;16805;52.956;5.906;2023-08-24T01:53:29;17.50;99.90
29817;DHT22;16805;52.956;5.906;2023-08-24T01:55:56;17.50;99.90
29817;DHT22;16805;52.956;5.906;2023-08-24T01:58:22;17.60;99.90
29817;DHT22;16805;52.956;5.906;2023-08-24T02:00:48;17.50;99.90
29817;DHT22;16805;52.956;5.906;2023-08-24T02:03:14;17.50;99.90
29817;DHT22;16805;52.956;5.906;2023-08-24T02:05:40;17.50;99.90
29817;DHT22;16805;52.956;5.906;2023-08-24T02:08:06;17.50;99.90
29817;DHT22;16805;52.956;5.906;2023-08-24T02:10:32;17.40;99.90
29817;DHT22;16805;52.956;5.906;2023-08-24T02:12:58;17.40;99.90
29817;DHT22;16805;52.956;5.906;2023-08-24T02:17:59;17.40;99.90
29817;DHT22;16805;52.956;5.906;2023-08-24T02:20:26;17.50;99.90
29817;DHT22;16805;52.956;5.906;2023-08-24T02:22:52;17.50;99.90
29817;DHT22;16805;52.956;5.906;2023-08-24T02:25:17;17.50;99.90
29817;DHT22;16805;52.956;5.906;2023-08-24T02:27:44;17.50;99.90
29817;DHT22;16805;52.956;5.906;2023-08-24T02:30:10;17.50;99.90
29817;DHT22;16805;52.956;5.906;2023-08-24T02:32:36;17.40;99.90
29817;DHT22;16805;52.956;5.906;2023-08-24T02:35:02;17.40;99.90
29817;DHT22;16805;52.956;5.906;2023-08-24T02:37:28;17.40;99.90
29817;DHT22;16805;52.956;5.906;2023-08-24T02:39:54;17.40;99.90
29817;DHT22;16805;52.956;5.906;2023-08-24T02:42:20;17.30;99.90
29817;DHT22;16805;52.956;5.906;2023-08-24T02:44:46;17.30;99.90
29817;DHT22;16805;52.956;5.906;2023-08-24T02:47:12;17.30;99.90
29817;DHT22;16805;52.956;5.906;2023-08-24T02:49:38;17.30;99.90
29817;DHT22;16805;52.956;5.906;2023-08-24T02:52:04;17.30;99.90
29817;DHT22;16805;52.956;5.906;2023-08-24T02:54:30;17.30;99.90
29817;DHT22;16805;52.956;5.906;2023-08-24T02:56:56;17.20;99.90
29817;DHT22;16805;52.956;5.906;2023-08-24T02:59:22;17.20;99.90
29817;DHT22;16805;52.956;5.906;2023-08-24T03:01:48;17.20;99.90
29817;DHT22;16805;52.956;5.906;2023-08-24T03:04:14;17.10;99.90
29817;DHT22;16805;52.956;5.906;2023-08-24T03:06:40;17.10;99.90
29817;DHT22;16805;52.956;5.906;2023-08-24T03:09:06;17.10;99.90
29817;DHT22;16805;52.956;5.906;2023-08-24T03:11:32;17.00;99.90
29817;DHT22;16805;52.956;5.906;2023-08-24T03:13:58;17.10;99.90
29817;DHT22;16805;52.956;5.906;2023-08-24T03:16:23;17.10;99.90
29817;DHT22;16805;52.956;5.906;2023-08-24T03:18:50;17.10;99.90
29817;DHT22;16805;52.956;5.906;2023-08-24T03:21:15;17.10;99.90
29817;DHT22;16805;52.956;5.906;2023-08-24T03:23:41;17.10;99.90
29817;DHT22;16805;52.956;5.906;2023-08-24T03:26:07;17.10;99.90
29817;DHT22;16805;52.956;5.906;2023-08-24T03:28:33;17.10;99.90
29817;DHT22;16805;52.956;5.906;2023-08-24T03:31:00;17.10;99.90
29817;DHT22;16805;52.956;5.906;2023-08-24T03:33:26;17.10;99.90
29817;DHT22;16805;52.956;5.906;2023-08-24T03:35:53;17.10;99.90
29817;DHT22;16805;52.956;5.906;2023-08-24T03:38:19;17.10;99.90
29817;DHT22;16805;52.956;5.906;2023-08-24T03:40:46;17.20;99.90
29817;DHT22;16805;52.956;5.906;2023-08-24T03:43:12;17.20;99.90
29817;DHT22;16805;52.956;5.906;2023-08-24T03:45:38;17.20;99.90
29817;DHT22;16805;52.956;5.906;2023-08-24T03:48:04;17.20;99.90
29817;DHT22;16805;52.956;5.906;2023-08-24T03:50:30;17.20;99.90
29817;DHT22;16805;52.956;5.906;2023-08-24T03:52:56;17.20;99.90
29817;DHT22;16805;52.956;5.906;2023-08-24T03:55:22;17.10;99.90
29817;DHT22;16805;52.956;5.906;2023-08-24T03:57:48;17.10;99.90
29817;DHT22;16805;52.956;5.906;2023-08-24T04:00:14;17.00;99.90
29817;DHT22;16805;52.956;5.906;2023-08-24T04:02:41;17.00;99.90
29817;DHT22;16805;52.956;5.906;2023-08-24T04:05:07;17.00;99.90
29817;DHT22;16805;52.956;5.906;2023-08-24T04:07:33;16.90;99.90
29817;DHT22;16805;52.956;5.906;2023-08-24T04:10:02;16.90;99.90
29817;DHT22;16805;52.956;5.906;2023-08-24T04:12:31;16.90;99.90
29817;DHT22;16805;52.956;5.906;2023-08-24T04:14:57;16.90;99.90
29817;DHT22;16805;52.956;5.906;2023-08-24T04:17:23;16.80;99.90
29817;DHT22;16805;52.956;5.906;2023-08-24T04:19:49;16.80;99.90
29817;DHT22;16805;52.956;5.906;2023-08-24T04:22:15;16.80;99.90
29817;DHT22;16805;52.956;5.906;2023-08-24T04:24:41;16.80;99.90
29817;DHT22;16805;52.956;5.906;2023-08-24T04:27:07;16.80;99.90
29817;DHT22;16805;52.956;5.906;2023-08-24T04:29:34;16.70;99.90
29817;DHT22;16805;52.956;5.906;2023-08-24T04:32:02;16.70;99.90
29817;DHT22;16805;52.956;5.906;2023-08-24T04:34:28;16.60;99.90
29817;DHT22;16805;52.956;5.906;2023-08-24T04:36:54;16.70;99.90
29817;DHT22;16805;52.956;5.906;2023-08-24T04:39:21;16.70;99.90
29817;DHT22;16805;52.956;5.906;2023-08-24T04:41:47;16.70;99.90
29817;DHT22;16805;52.956;5.906;2023-08-24T04:44:13;16.70;99.90
29817;DHT22;16805;52.956;5.906;2023-08-24T04:46:39;16.60;99.90
29817;DHT22;16805;52.956;5.906;2023-08-24T04:49:05;16.70;99.90
29817;DHT22;16805;52.956;5.906;2023-08-24T04:51:32;16.60;99.90
29817;DHT22;16805;52.956;5.906;2023-08-24T04:53:58;16.70;99.90
29817;DHT22;16805;52.956;5.906;2023-08-24T04:56:24;16.70;99.90
29817;DHT22;16805;52.956;5.906;2023-08-24T04:58:57;16.70;99.90
29817;DHT22;16805;52.956;5.906;2023-08-24T05:01:23;16.80;99.90
29817;DHT22;16805;52.956;5.906;2023-08-24T05:03:53;16.80;99.90
29817;DHT22;16805;52.956;5.906;2023-08-24T05:06:20;16.80;99.90
29817;DHT22;16805;52.956;5.906;2023-08-24T05:08:46;16.80;99.90
29817;DHT22;16805;52.956;5.906;2023-08-24T05:11:20;16.80;99.90
29817;DHT22;16805;52.956;5.906;2023-08-24T05:13:46;16.90;99.90
29817;DHT22;16805;52.956;5.906;2023-08-24T05:16:14;16.90;99.90
29817;DHT22;16805;52.956;5.906;2023-08-24T05:18:41;16.90;99.90
29817;DHT22;16805;52.956;5.906;2023-08-24T05:21:29;16.90;99.90
29817;DHT22;16805;52.956;5.906;2023-08-24T05:23:57;17.00;99.90
29817;DHT22;16805;52.956;5.906;2023-08-24T05:26:23;17.00;99.90
29817;DHT22;16805;52.956;5.906;2023-08-24T05:28:53;17.10;99.90
29817;DHT22;16805;52.956;5.906;2023-08-24T05:31:19;17.20;99.90
29817;DHT22;16805;52.956;5.906;2023-08-24T05:33:44;17.30;99.90
29817;DHT22;16805;52.956;5.906;2023-08-24T05:36:10;17.40;99.90
29817;DHT22;16805;52.956;5.906;2023-08-24T05:38:38;17.50;99.90
29817;DHT22;16805;52.956;5.906;2023-08-24T05:41:14;17.60;99.90
29817;DHT22;16805;52.956;5.906;2023-08-24T05:43:47;17.70;99.90
29817;DHT22;16805;52.956;5.906;2023-08-24T05:46:13;17.80;99.90
29817;DHT22;16805;52.956;5.906;2023-08-24T05:48:40;17.90;99.90
29817;DHT22;16805;52.956;5.906;2023-08-24T05:51:06;18.00;99.90
29817;DHT22;16805;52.956;5.906;2023-08-24T05:53:34;18.20;99.90
29817;DHT22;16805;52.956;5.906;2023-08-24T05:56:00;18.20;99.90
29817;DHT22;16805;52.956;5.906;2023-08-24T05:58:26;18.40;99.90
29817;DHT22;16805;52.956;5.906;2023-08-24T06:00:57;18.50;99.90
29817;DHT22;16805;52.956;5.906;2023-08-24T06:03:24;18.60;99.90
29817;DHT22;16805;52.956;5.906;2023-08-24T06:05:49;18.80;99.90
29817;DHT22;16805;52.956;5.906;2023-08-24T06:08:15;18.90;99.90
29817;DHT22;16805;52.956;5.906;2023-08-24T06:10:41;19.00;99.90
29817;DHT22;16805;52.956;5.906;2023-08-24T06:13:07;19.20;99.90
29817;DHT22;16805;52.956;5.906;2023-08-24T06:15:33;19.40;99.90
29817;DHT22;16805;52.956;5.906;2023-08-24T06:17:59;19.50;99.90
29817;DHT22;16805;52.956;5.906;2023-08-24T06:20:27;19.60;99.90
29817;DHT22;16805;52.956;5.906;2023-08-24T06:23:03;19.70;99.90
29817;DHT22;16805;52.956;5.906;2023-08-24T06:25:35;19.70;99.90
29817;DHT22;16805;52.956;5.906;2023-08-24T06:28:00;19.70;99.90
29817;DHT22;16805;52.956;5.906;2023-08-24T06:30:29;19.70;99.90
29817;DHT22;16805;52.956;5.906;2023-08-24T06:32:59;19.70;99.90
29817;DHT22;16805;52.956;5.906;2023-08-24T06:35:25;19.60;99.90
29817;DHT22;16805;52.956;5.906;2023-08-24T06:37:51;19.60;99.90
29817;DHT22;16805;52.956;5.906;2023-08-24T06:40:16;19.60;99.90
29817;DHT22;16805;52.956;5.906;2023-08-24T06:42:44;19.70;99.90
29817;DHT22;16805;52.956;5.906;2023-08-24T06:45:09;19.70;99.90
29817;DHT22;16805;52.956;5.906;2023-08-24T06:47:36;19.80;99.90
29817;DHT22;16805;52.956;5.906;2023-08-24T06:50:02;19.90;99.90
29817;DHT22;16805;52.956;5.906;2023-08-24T06:52:28;20.00;99.90
29817;DHT22;16805;52.956;5.906;2023-08-24T06:54:54;20.00;99.90
29817;DHT22;16805;52.956;5.906;2023-08-24T06:57:21;20.10;99.90
29817;DHT22;16805;52.956;5.906;2023-08-24T06:59:49;20.20;99.90
29817;DHT22;16805;52.956;5.906;2023-08-24T07:02:16;20.30;99.90
29817;DHT22;16805;52.956;5.906;2023-08-24T07:04:46;20.50;99.90
29817;DHT22;16805;52.956;5.906;2023-08-24T07:07:12;20.70;99.90
29817;DHT22;16805;52.956;5.906;2023-08-24T07:09:38;20.80;99.90
29817;DHT22;16805;52.956;5.906;2023-08-24T07:12:04;21.00;99.90
29817;DHT22;16805;52.956;5.906;2023-08-24T07:14:33;21.10;99.90
29817;DHT22;16805;52.956;5.906;2023-08-24T07:16:59;21.30;99.90
29817;DHT22;16805;52.956;5.906;2023-08-24T07:19:25;21.50;99.90
29817;DHT22;16805;52.956;5.906;2023-08-24T07:21:52;21.60;99.90
29817;DHT22;16805;52.956;5.906;2023-08-24T07:24:19;21.70;99.90
29817;DHT22;16805;52.956;5.906;2023-08-24T07:26:46;21.90;99.90
29817;DHT22;16805;52.956;5.906;2023-08-24T07:29:13;22.00;99.90
29817;DHT22;16805;52.956;5.906;2023-08-24T07:31:40;22.10;99.90
29817;DHT22;16805;52.956;5.906;2023-08-24T07:34:07;22.20;99.90
29817;DHT22;16805;52.956;5.906;2023-08-24T07:36:33;22.30;99.90
29817;DHT22;16805;52.956;5.906;2023-08-24T07:39:00;22.40;99.90
29817;DHT22;16805;52.956;5.906;2023-08-24T07:41:25;22.60;99.90
29817;DHT22;16805;52.956;5.906;2023-08-24T07:43:51;22.60;99.90
29817;DHT22;16805;52.956;5.906;2023-08-24T07:46:21;22.70;99.90
29817;DHT22;16805;52.956;5.906;2023-08-24T07:48:47;22.80;99.90
29817;DHT22;16805;52.956;5.906;2023-08-24T07:51:13;22.90;99.90
29817;DHT22;16805;52.956;5.906;2023-08-24T07:53:39;23.00;99.90
29817;DHT22;16805;52.956;5.906;2023-08-24T07:56:05;23.10;99.90
29817;DHT22;16805;52.956;5.906;2023-08-24T07:58:32;23.20;99.90
29817;DHT22;16805;52.956;5.906;2023-08-24T08:00:59;23.30;99.90
29817;DHT22;16805;52.956;5.906;2023-08-24T08:03:26;23.40;99.90
29817;DHT22;16805;52.956;5.906;2023-08-24T08:05:52;23.50;99.90
29817;DHT22;16805;52.956;5.906;2023-08-24T08:08:18;23.60;99.90
29817;DHT22;16805;52.956;5.906;2023-08-24T08:10:44;23.60;99.90
29817;DHT22;16805;52.956;5.906;2023-08-24T08:13:12;23.70;99.90
29817;DHT22;16805;52.956;5.906;2023-08-24T08:16:06;23.70;99.90
29817;DHT22;16805;52.956;5.906;2023-08-24T08:18:33;23.80;99.90
29817;DHT22;16805;52.956;5.906;2023-08-24T08:21:20;23.90;99.90
29817;DHT22;16805;52.956;5.906;2023-08-24T08:23:50;24.00;99.90
29817;DHT22;16805;52.956;5.906;2023-08-24T08:26:16;24.10;99.90
29817;DHT22;16805;52.956;5.906;2023-08-24T08:28:42;24.10;99.90
29817;DHT22;16805;52.956;5.906;2023-08-24T08:31:10;24.10;99.90
29817;DHT22;16805;52.956;5.906;2023-08-24T08:33:36;24.10;99.90
29817;DHT22;16805;52.956;5.906;2023-08-24T08:36:07;24.00;99.90
29817;DHT22;16805;52.956;5.906;2023-08-24T08:38:57;23.90;99.90
29817;DHT22;16805;52.956;5.906;2023-08-24T11:12:05;21.90;99.90
29817;DHT22;16805;52.956;5.906;2023-08-24T11:14:31;21.90;99.90
29817;DHT22;16805;52.956;5.906;2023-08-24T11:17:20;22.00;99.90
29817;DHT22;16805;52.956;5.906;2023-08-24T11:19:51;22.00;99.90
29817;DHT22;16805;52.956;5.906;2023-08-24T11:22:17;22.00;99.90
29817;DHT22;16805;52.956;5.906;2023-08-24T11:24:44;21.90;99.90
29817;DHT22;16805;52.956;5.906;2023-08-24T11:27:09;21.90;99.90
29817;DHT22;16805;52.956;5.906;2023-08-24T11:29:35;21.90;99.90
29817;DHT22;16805;52.956;5.906;2023-08-24T11:32:02;21.80;99.90
29817;DHT22;16805;52.956;5.906;2023-08-24T11:34:28;21.80;99.90
29817;DHT22;16805;52.956;5.906;2023-08-24T11:36:54;21.90;99.90
29817;DHT22;16805;52.956;5.906;2023-08-24T11:39:21;21.90;99.90
29817;DHT22;16805;52.956;5.906;2023-08-24T11:41:58;21.90;99.90
29817;DHT22;16805;52.956;5.906;2023-08-24T11:44:24;21.90;99.90
29817;DHT22;16805;52.956;5.906;2023-08-24T11:46:50;21.90;99.90
29817;DHT22;16805;52.956;5.906;2023-08-24T11:49:16;21.90;99.90
29817;DHT22;16805;52.956;5.906;2023-08-24T11:51:42;21.90;99.90
29817;DHT22;16805;52.956;5.906;2023-08-24T11:54:08;22.00;99.90
29817;DHT22;16805;52.956;5.906;2023-08-24T11:56:41;22.00;99.90
29817;DHT22;16805;52.956;5.906;2023-08-24T11:59:11;22.00;99.90
29817;DHT22;16805;52.956;5.906;2023-08-24T12:01:37;22.00;99.90
29817;DHT22;16805;52.956;5.906;2023-08-24T12:04:05;22.10;99.90
29817;DHT22;16805;52.956;5.906;2023-08-24T12:06:31;22.10;99.90
29817;DHT22;16805;52.956;5.906;2023-08-24T12:08:57;22.10;99.90
29817;DHT22;16805;52.956;5.906;2023-08-24T12:11:22;22.10;99.90
29817;DHT22;16805;52.956;5.906;2023-08-24T12:13:52;22.10;99.90
29817;DHT22;16805;52.956;5.906;2023-08-24T12:16:19;22.10;99.90
29817;DHT22;16805;52.956;5.906;2023-08-24T12:18:52;22.10;99.90
29817;DHT22;16805;52.956;5.906;2023-08-24T12:21:18;22.20;99.90
29817;DHT22;16805;52.956;5.906;2023-08-24T12:23:54;22.10;99.90
29817;DHT22;16805;52.956;5.906;2023-08-24T12:26:20;22.20;99.90
29817;DHT22;16805;52.956;5.906;2023-08-24T12:28:50;22.10;99.90
29817;DHT22;16805;52.956;5.906;2023-08-24T12:31:18;22.10;99.90
29817;DHT22;16805;52.956;5.906;2023-08-24T12:33:45;22.10;99.90
29817;DHT22;16805;52.956;5.906;2023-08-24T12:36:12;22.10;99.90
29817;DHT22;16805;52.956;5.906;2023-08-24T12:38:37;22.10;99.90
29817;DHT22;16805;52.956;5.906;2023-08-24T12:41:04;22.10;99.90
29817;DHT22;16805;52.956;5.906;2023-08-24T12:43:30;22.10;99.90
29817;DHT22;16805;52.956;5.906;2023-08-24T12:45:55;22.10;99.90
29817;DHT22;16805;52.956;5.906;2023-08-24T12:48:21;22.10;99.90
29817;DHT22;16805;52.956;5.906;2023-08-24T12:50:47;22.10;99.90
29817;DHT22;16805;52.956;5.906;2023-08-24T12:53:12;22.10;99.90
29817;DHT22;16805;52.956;5.906;2023-08-24T12:55:39;22.10;99.90
29817;DHT22;16805;52.956;5.906;2023-08-24T12:58:05;22.10;99.90
29817;DHT22;16805;52.956;5.906;2023-08-24T13:00:31;22.10;99.90
29817;DHT22;16805;52.956;5.906;2023-08-24T13:02:57;22.10;99.90
29817;DHT22;16805;52.956;5.906;2023-08-24T13:05:23;22.10;99.90
29817;DHT22;16805;52.956;5.906;2023-08-24T13:07:48;22.10;99.90
29817;DHT22;16805;52.956;5.906;2023-08-24T13:10:14;22.10;99.90
29817;DHT22;16805;52.956;5.906;2023-08-24T13:12:40;22.10;99.90
29817;DHT22;16805;52.956;5.906;2023-08-24T13:15:07;22.00;99.90
29817;DHT22;16805;52.956;5.906;2023-08-24T13:17:33;22.00;99.90
29817;DHT22;16805;52.956;5.906;2023-08-24T13:19:58;22.10;99.90
29817;DHT22;16805;52.956;5.906;2023-08-24T13:22:24;22.10;99.90
29817;DHT22;16805;52.956;5.906;2023-08-24T13:24:50;22.10;99.90
29817;DHT22;16805;52.956;5.906;2023-08-24T13:27:16;22.10;99.90
29817;DHT22;16805;52.956;5.906;2023-08-24T13:29:46;22.20;99.90
29817;DHT22;16805;52.956;5.906;2023-08-24T13:32:13;22.20;99.90
29817;DHT22;16805;52.956;5.906;2023-08-24T13:34:39;22.30;99.90
29817;DHT22;16805;52.956;5.906;2023-08-24T13:37:05;22.30;99.90
29817;DHT22;16805;52.956;5.906;2023-08-24T13:39:30;22.30;99.90
29817;DHT22;16805;52.956;5.906;2023-08-24T13:41:58;22.30;99.90
29817;DHT22;16805;52.956;5.906;2023-08-24T13:44:23;22.30;99.90
29817;DHT22;16805;52.956;5.906;2023-08-24T13:46:50;22.40;99.90
29817;DHT22;16805;52.956;5.906;2023-08-24T13:49:19;22.40;99.90
29817;DHT22;16805;52.956;5.906;2023-08-24T13:51:44;22.40;99.90
29817;DHT22;16805;52.956;5.906;2023-08-24T13:54:18;22.40;99.90
29817;DHT22;16805;52.956;5.906;2023-08-24T13:56:45;22.40;99.90
29817;DHT22;16805;52.956;5.906;2023-08-24T13:59:12;22.40;99.90
29817;DHT22;16805;52.956;5.906;2023-08-24T14:01:37;22.30;99.90
29817;DHT22;16805;52.956;5.906;2023-08-24T14:04:03;22.30;99.90
29817;DHT22;16805;52.956;5.906;2023-08-24T14:06:30;22.30;99.90
29817;DHT22;16805;52.956;5.906;2023-08-24T14:08:57;22.30;99.90
29817;DHT22;16805;52.956;5.906;2023-08-24T14:11:23;22.30;99.90
29817;DHT22;16805;52.956;5.906;2023-08-24T14:13:49;22.30;99.90
29817;DHT22;16805;52.956;5.906;2023-08-24T14:16:15;22.20;99.90
29817;DHT22;16805;52.956;5.906;2023-08-24T14:18:40;22.10;99.90
29817;DHT22;16805;52.956;5.906;2023-08-24T14:21:06;22.10;99.90
29817;DHT22;16805;52.956;5.906;2023-08-24T14:23:32;22.10;99.90
29817;DHT22;16805;52.956;5.906;2023-08-24T14:25:58;22.10;99.90
29817;DHT22;16805;52.956;5.906;2023-08-24T14:28:23;22.00;99.90
29817;DHT22;16805;52.956;5.906;2023-08-24T14:30:50;22.00;99.90
29817;DHT22;16805;52.956;5.906;2023-08-24T14:33:16;21.90;99.90
29817;DHT22;16805;52.956;5.906;2023-08-24T14:35:52;21.90;99.90
29817;DHT22;16805;52.956;5.906;2023-08-24T14:38:18;21.90;99.90
29817;DHT22;16805;52.956;5.906;2023-08-24T14:40:44;21.80;99.90
29817;DHT22;16805;52.956;5.906;2023-08-24T14:43:10;21.80;99.90
29817;DHT22;16805;52.956;5.906;2023-08-24T14:45:36;21.80;99.90
29817;DHT22;16805;52.956;5.906;2023-08-24T14:48:02;21.90;99.90
29817;DHT22;16805;52.956;5.906;2023-08-24T14:50:28;21.80;99.90
29817;DHT22;16805;52.956;5.906;2023-08-24T14:52:54;21.80;99.90
29817;DHT22;16805;52.956;5.906;2023-08-24T14:55:20;21.80;99.90
29817;DHT22;16805;52.956;5.906;2023-08-24T14:57:45;21.80;99.90
29817;DHT22;16805;52.956;5.906;2023-08-24T15:00:12;21.80;99.90
29817;DHT22;16805;52.956;5.906;2023-08-24T15:02:38;21.80;99.90
29817;DHT22;16805;52.956;5.906;2023-08-24T15:05:04;21.80;99.90
29817;DHT22;16805;52.956;5.906;2023-08-24T15:07:30;21.80;99.90
29817;DHT22;16805;52.956;5.906;2023-08-24T15:09:57;21.80;99.90
29817;DHT22;16805;52.956;5.906;2023-08-24T15:12:23;21.80;99.90
29817;DHT22;16805;52.956;5.906;2023-08-24T17:31:30;22.00;99.90
29817;DHT22;16805;52.956;5.906;2023-08-24T17:33:56;22.00;99.90
29817;DHT22;16805;52.956;5.906;2023-08-24T17:36:21;21.90;99.90
29817;DHT22;16805;52.956;5.906;2023-08-24T17:38:47;21.90;99.90
29817;DHT22;16805;52.956;5.906;2023-08-24T17:41:13;21.90;99.90
29817;DHT22;16805;52.956;5.906;2023-08-24T17:43:38;21.90;99.90
29817;DHT22;16805;52.956;5.906;2023-08-24T17:46:06;22.00;99.90
29817;DHT22;16805;52.956;5.906;2023-08-24T17:48:32;22.00;99.90
29817;DHT22;16805;52.956;5.906;2023-08-24T17:50:59;21.90;99.90
29817;DHT22;16805;52.956;5.906;2023-08-24T17:53:26;21.90;99.90
29817;DHT22;16805;52.956;5.906;2023-08-24T17:55:55;22.00;99.90
29817;DHT22;16805;52.956;5.906;2023-08-24T17:58:22;22.00;99.90
29817;DHT22;16805;52.956;5.906;2023-08-24T18:00:48;22.00;99.90
29817;DHT22;16805;52.956;5.906;2023-08-24T18:03:14;22.00;99.90
29817;DHT22;16805;52.956;5.906;2023-08-24T18:05:40;22.00;99.90
29817;DHT22;16805;52.956;5.906;2023-08-24T18:08:06;22.00;99.90
29817;DHT22;16805;52.956;5.906;2023-08-24T18:10:32;22.00;99.90
29817;DHT22;16805;52.956;5.906;2023-08-24T18:12:58;21.90;99.90
29817;DHT22;16805;52.956;5.906;2023-08-24T18:15:24;21.90;99.90
29817;DHT22;16805;52.956;5.906;2023-08-24T18:17:50;21.90;99.90
29817;DHT22;16805;52.956;5.906;2023-08-24T18:20:16;21.90;99.90
29817;DHT22;16805;52.956;5.906;2023-08-24T18:22:45;21.90;99.90
29817;DHT22;16805;52.956;5.906;2023-08-24T18:25:10;21.90;99.90
29817;DHT22;16805;52.956;5.906;2023-08-24T18:27:36;21.90;99.90
29817;DHT22;16805;52.956;5.906;2023-08-24T18:30:03;21.90;99.90
29817;DHT22;16805;52.956;5.906;2023-08-24T18:32:30;21.90;99.90
29817;DHT22;16805;52.956;5.906;2023-08-24T18:34:55;21.90;99.90
29817;DHT22;16805;52.956;5.906;2023-08-24T18:37:23;21.90;99.90
29817;DHT22;16805;52.956;5.906;2023-08-24T18:39:50;21.80;99.90
29817;DHT22;16805;52.956;5.906;2023-08-24T18:42:15;21.80;99.90
29817;DHT22;16805;52.956;5.906;2023-08-24T18:44:41;21.80;99.90
29817;DHT22;16805;52.956;5.906;2023-08-24T18:47:07;21.80;99.90
29817;DHT22;16805;52.956;5.906;2023-08-24T18:49:33;21.80;99.90
29817;DHT22;16805;52.956;5.906;2023-08-24T18:52:00;21.80;99.90
29817;DHT22;16805;52.956;5.906;2023-08-24T18:54:26;21.70;99.90
29817;DHT22;16805;52.956;5.906;2023-08-24T18:56:52;21.70;99.90
29817;DHT22;16805;52.956;5.906;2023-08-24T18:59:18;21.70;99.90
29817;DHT22;16805;52.956;5.906;2023-08-24T19:01:46;21.70;99.90
29817;DHT22;16805;52.956;5.906;2023-08-24T19:04:11;21.70;99.90
29817;DHT22;16805;52.956;5.906;2023-08-24T19:06:37;21.70;99.90
29817;DHT22;16805;52.956;5.906;2023-08-24T19:09:03;21.60;99.90
29817;DHT22;16805;52.956;5.906;2023-08-24T19:11:29;21.60;99.90
29817;DHT22;16805;52.956;5.906;2023-08-24T19:13:56;21.60;99.90
29817;DHT22;16805;52.956;5.906;2023-08-24T19:16:21;21.60;99.90
29817;DHT22;16805;52.956;5.906;2023-08-24T19:18:47;21.60;99.90
29817;DHT22;16805;52.956;5.906;2023-08-24T19:21:13;21.60;99.90
29817;DHT22;16805;52.956;5.906;2023-08-24T19:23:39;21.60;99.90
29817;DHT22;16805;52.956;5.906;2023-08-24T19:26:05;21.60;99.90
29817;DHT22;16805;52.956;5.906;2023-08-24T19:28:31;21.60;99.90
29817;DHT22;16805;52.956;5.906;2023-08-24T19:30:58;21.60;99.90
29817;DHT22;16805;52.956;5.906;2023-08-24T19:33:24;21.50;99.90
29817;DHT22;16805;52.956;5.906;2023-08-24T19:35:50;21.60;99.90
29817;DHT22;16805;52.956;5.906;2023-08-24T19:38:16;21.50;99.90
29817;DHT22;16805;52.956;5.906;2023-08-24T19:40:43;21.50;99.90
29817;DHT22;16805;52.956;5.906;2023-08-24T19:43:08;21.50;99.90
29817;DHT22;16805;52.956;5.906;2023-08-24T19:45:38;21.50;99.90
29817;DHT22;16805;52.956;5.906;2023-08-24T19:48:05;21.50;99.90
29817;DHT22;16805;52.956;5.906;2023-08-24T19:50:32;21.50;99.90
29817;DHT22;16805;52.956;5.906;2023-08-24T19:52:59;21.50;99.90
29817;DHT22;16805;52.956;5.906;2023-08-24T19:55:25;21.50;99.90
29817;DHT22;16805;52.956;5.906;2023-08-24T19:57:51;21.50;99.90
29817;DHT22;16805;52.956;5.906;2023-08-24T20:00:18;21.40;99.90
29817;DHT22;16805;52.956;5.906;2023-08-24T20:02:46;21.40;99.90
29817;DHT22;16805;52.956;5.906;2023-08-24T20:05:12;21.40;99.90
29817;DHT22;16805;52.956;5.906;2023-08-24T20:07:38;21.40;99.90
29817;DHT22;16805;52.956;5.906;2023-08-24T20:10:07;21.40;99.90
29817;DHT22;16805;52.956;5.906;2023-08-24T20:12:34;21.40;99.90
29817;DHT22;16805;52.956;5.906;2023-08-24T20:15:00;21.40;99.90
29817;DHT22;16805;52.956;5.906;2023-08-24T20:17:29;21.40;99.90
29817;DHT22;16805;52.956;5.906;2023-08-24T20:19:56;21.30;99.90
29817;DHT22;16805;52.956;5.906;2023-08-24T20:22:25;21.30;99.90
29817;DHT22;16805;52.956;5.906;2023-08-24T20:24:51;21.20;99.90